sensor_id;sensor_type;location;lat;lon;timestamp;P1;durP1;ratioP1;P2;durP2;ratioP2
52015;SDS011;38032;53.326;6.472;2023-07-16T00:01:46;11.23;;;3.55;;
52015;SDS011;38032;53.326;6.472;2023-07-16T00:04:12;12.27;;;3.85;;
52015;SDS011;38032;53.326;6.472;2023-07-16T00:06:38;12.93;;;4.25;;
52015;SDS011;38032;53.326;6.472;2023-07-16T00:09:04;11.07;;;4.10;;
52015;SDS011;38032;53.326;6.472;2023-07-16T00:11:30;9.60;;;3.50;;
52015;SDS011;38032;53.326;6.472;2023-07-16T00:13:56;8.55;;;3.70;;
52015;SDS011;38032;53.326;6.472;2023-07-16T00:16:22;14.90;;;3.45;;
52015;SDS011;38032;53.326;6.472;2023-07-16T00:18:48;11.30;;;3.80;;
52015;SDS011;38032;53.326;6.472;2023-07-16T00:21:14;11.57;;;3.47;;
52015;SDS011;38032;53.326;6.472;2023-07-16T00:23:39;10.60;;;3.10;;
52015;SDS011;38032;53.326;6.472;2023-07-16T00:26:05;9.43;;;3.33;;
52015;SDS011;38032;53.326;6.472;2023-07-16T00:28:31;10.82;;;3.40;;
52015;SDS011;38032;53.326;6.472;2023-07-16T00:30:57;10.95;;;3.60;;
52015;SDS011;38032;53.326;6.472;2023-07-16T00:33:24;11.10;;;3.58;;
52015;SDS011;38032;53.326;6.472;2023-07-16T00:35:50;9.50;;;3.85;;
52015;SDS011;38032;53.326;6.472;2023-07-16T00:38:17;10.95;;;3.75;;
52015;SDS011;38032;53.326;6.472;2023-07-16T00:40:44;10.77;;;4.07;;
52015;SDS011;38032;53.326;6.472;2023-07-16T00:43:10;10.57;;;3.47;;
52015;SDS011;38032;53.326;6.472;2023-07-16T00:45:36;10.10;;;3.45;;
52015;SDS011;38032;53.326;6.472;2023-07-16T00:48:05;11.23;;;4.03;;
52015;SDS011;38032;53.326;6.472;2023-07-16T00:50:32;11.57;;;3.80;;
52015;SDS011;38032;53.326;6.472;2023-07-16T00:53:01;10.18;;;3.38;;
52015;SDS011;38032;53.326;6.472;2023-07-16T00:55:29;13.25;;;3.90;;
52015;SDS011;38032;53.326;6.472;2023-07-16T00:57:56;11.43;;;3.50;;
52015;SDS011;38032;53.326;6.472;2023-07-16T01:00:28;8.27;;;3.35;;
52015;SDS011;38032;53.326;6.472;2023-07-16T01:02:54;10.65;;;3.45;;
52015;SDS011;38032;53.326;6.472;2023-07-16T01:05:20;12.52;;;4.07;;
52015;SDS011;38032;53.326;6.472;2023-07-16T01:07:53;9.25;;;3.45;;
52015;SDS011;38032;53.326;6.472;2023-07-16T01:10:23;11.23;;;3.58;;
52015;SDS011;38032;53.326;6.472;2023-07-16T01:12:53;9.70;;;4.00;;
52015;SDS011;38032;53.326;6.472;2023-07-16T01:15:20;11.45;;;3.75;;
52015;SDS011;38032;53.326;6.472;2023-07-16T01:17:46;9.90;;;3.58;;
52015;SDS011;38032;53.326;6.472;2023-07-16T01:20:12;11.02;;;4.57;;
52015;SDS011;38032;53.326;6.472;2023-07-16T01:22:45;11.82;;;3.75;;
52015;SDS011;38032;53.326;6.472;2023-07-16T01:25:29;10.02;;;4.22;;
52015;SDS011;38032;53.326;6.472;2023-07-16T01:30:41;15.10;;;4.18;;
52015;SDS011;38032;53.326;6.472;2023-07-16T01:33:10;9.93;;;3.97;;
52015;SDS011;38032;53.326;6.472;2023-07-16T01:35:38;11.25;;;4.30;;
52015;SDS011;38032;53.326;6.472;2023-07-16T01:38:06;11.43;;;4.10;;
52015;SDS011;38032;53.326;6.472;2023-07-16T01:40:34;12.30;;;4.10;;
52015;SDS011;38032;53.326;6.472;2023-07-16T01:43:00;9.40;;;3.88;;
52015;SDS011;38032;53.326;6.472;2023-07-16T01:45:26;13.43;;;4.10;;
52015;SDS011;38032;53.326;6.472;2023-07-16T01:47:55;11.32;;;4.45;;
52015;SDS011;38032;53.326;6.472;2023-07-16T01:50:38;11.55;;;4.22;;
52015;SDS011;38032;53.326;6.472;2023-07-16T01:53:04;10.20;;;3.90;;
52015;SDS011;38032;53.326;6.472;2023-07-16T01:55:29;9.13;;;3.60;;
52015;SDS011;38032;53.326;6.472;2023-07-16T01:57:55;9.20;;;3.40;;
52015;SDS011;38032;53.326;6.472;2023-07-16T02:00:21;9.27;;;3.42;;
52015;SDS011;38032;53.326;6.472;2023-07-16T02:02:47;9.38;;;3.70;;
52015;SDS011;38032;53.326;6.472;2023-07-16T02:05:14;7.88;;;3.45;;
52015;SDS011;38032;53.326;6.472;2023-07-16T02:07:40;14.40;;;3.88;;
52015;SDS011;38032;53.326;6.472;2023-07-16T02:10:06;8.02;;;3.35;;
52015;SDS011;38032;53.326;6.472;2023-07-16T02:12:32;8.90;;;3.55;;
52015;SDS011;38032;53.326;6.472;2023-07-16T02:14:58;11.07;;;3.70;;
52015;SDS011;38032;53.326;6.472;2023-07-16T02:17:24;7.63;;;3.67;;
52015;SDS011;38032;53.326;6.472;2023-07-16T02:19:50;11.27;;;3.70;;
52015;SDS011;38032;53.326;6.472;2023-07-16T02:22:15;7.88;;;3.25;;
52015;SDS011;38032;53.326;6.472;2023-07-16T02:24:41;10.80;;;3.47;;
52015;SDS011;38032;53.326;6.472;2023-07-16T02:27:07;9.93;;;3.22;;
52015;SDS011;38032;53.326;6.472;2023-07-16T02:29:33;9.23;;;3.10;;
52015;SDS011;38032;53.326;6.472;2023-07-16T02:31:59;9.68;;;3.08;;
52015;SDS011;38032;53.326;6.472;2023-07-16T02:34:25;10.10;;;3.47;;
52015;SDS011;38032;53.326;6.472;2023-07-16T02:36:51;10.25;;;3.50;;
52015;SDS011;38032;53.326;6.472;2023-07-16T02:39:17;7.47;;;3.67;;
52015;SDS011;38032;53.326;6.472;2023-07-16T02:41:43;11.77;;;3.95;;
52015;SDS011;38032;53.326;6.472;2023-07-16T02:44:08;11.73;;;3.63;;
52015;SDS011;38032;53.326;6.472;2023-07-16T02:46:34;10.02;;;4.00;;
52015;SDS011;38032;53.326;6.472;2023-07-16T02:49:02;8.55;;;3.65;;
52015;SDS011;38032;53.326;6.472;2023-07-16T02:51:28;11.55;;;4.45;;
52015;SDS011;38032;53.326;6.472;2023-07-16T02:53:54;9.30;;;3.53;;
52015;SDS011;38032;53.326;6.472;2023-07-16T02:56:20;9.55;;;3.80;;
52015;SDS011;38032;53.326;6.472;2023-07-16T02:58:46;9.05;;;3.88;;
52015;SDS011;38032;53.326;6.472;2023-07-16T03:01:12;10.90;;;4.30;;
52015;SDS011;38032;53.326;6.472;2023-07-16T03:03:37;9.13;;;4.07;;
52015;SDS011;38032;53.326;6.472;2023-07-16T03:06:03;9.88;;;4.45;;
52015;SDS011;38032;53.326;6.472;2023-07-16T03:08:29;11.80;;;4.38;;
52015;SDS011;38032;53.326;6.472;2023-07-16T03:10:57;11.88;;;4.28;;
52015;SDS011;38032;53.326;6.472;2023-07-16T03:13:23;9.63;;;3.75;;
52015;SDS011;38032;53.326;6.472;2023-07-16T03:15:49;8.98;;;4.22;;
52015;SDS011;38032;53.326;6.472;2023-07-16T03:18:17;11.55;;;4.40;;
52015;SDS011;38032;53.326;6.472;2023-07-16T03:20:43;8.27;;;4.53;;
52015;SDS011;38032;53.326;6.472;2023-07-16T03:23:09;10.68;;;4.72;;
52015;SDS011;38032;53.326;6.472;2023-07-16T03:25:35;7.68;;;3.95;;
52015;SDS011;38032;53.326;6.472;2023-07-16T03:28:01;10.50;;;4.38;;
52015;SDS011;38032;53.326;6.472;2023-07-16T03:30:27;11.80;;;4.35;;
52015;SDS011;38032;53.326;6.472;2023-07-16T03:32:53;8.60;;;4.18;;
52015;SDS011;38032;53.326;6.472;2023-07-16T03:35:19;9.63;;;4.25;;
52015;SDS011;38032;53.326;6.472;2023-07-16T03:37:45;11.80;;;4.72;;
52015;SDS011;38032;53.326;6.472;2023-07-16T03:40:12;9.75;;;4.30;;
52015;SDS011;38032;53.326;6.472;2023-07-16T03:42:40;12.02;;;4.57;;
52015;SDS011;38032;53.326;6.472;2023-07-16T03:45:06;12.82;;;5.32;;
52015;SDS011;38032;53.326;6.472;2023-07-16T03:47:33;12.40;;;4.82;;
52015;SDS011;38032;53.326;6.472;2023-07-16T03:49:59;9.93;;;4.50;;
52015;SDS011;38032;53.326;6.472;2023-07-16T03:52:25;12.98;;;5.00;;
52015;SDS011;38032;53.326;6.472;2023-07-16T03:54:51;17.50;;;5.32;;
52015;SDS011;38032;53.326;6.472;2023-07-16T03:57:17;8.02;;;4.45;;
52015;SDS011;38032;53.326;6.472;2023-07-16T03:59:43;13.48;;;5.35;;
52015;SDS011;38032;53.326;6.472;2023-07-16T04:02:09;12.82;;;4.90;;
52015;SDS011;38032;53.326;6.472;2023-07-16T04:04:35;12.70;;;4.93;;
52015;SDS011;38032;53.326;6.472;2023-07-16T04:07:01;12.68;;;5.25;;
52015;SDS011;38032;53.326;6.472;2023-07-16T04:09:27;8.98;;;4.70;;
52015;SDS011;38032;53.326;6.472;2023-07-16T04:11:53;13.55;;;5.00;;
52015;SDS011;38032;53.326;6.472;2023-07-16T04:14:18;13.68;;;5.07;;
52015;SDS011;38032;53.326;6.472;2023-07-16T04:16:44;11.02;;;5.00;;
52015;SDS011;38032;53.326;6.472;2023-07-16T04:19:10;13.13;;;5.68;;
52015;SDS011;38032;53.326;6.472;2023-07-16T04:21:36;12.98;;;4.93;;
52015;SDS011;38032;53.326;6.472;2023-07-16T04:24:02;14.55;;;5.65;;
52015;SDS011;38032;53.326;6.472;2023-07-16T04:26:29;13.77;;;5.32;;
52015;SDS011;38032;53.326;6.472;2023-07-16T04:28:54;13.18;;;5.53;;
52015;SDS011;38032;53.326;6.472;2023-07-16T04:31:20;12.27;;;5.40;;
52015;SDS011;38032;53.326;6.472;2023-07-16T04:33:46;13.57;;;5.47;;
52015;SDS011;38032;53.326;6.472;2023-07-16T04:36:12;11.88;;;5.13;;
52015;SDS011;38032;53.326;6.472;2023-07-16T04:38:38;13.65;;;5.90;;
52015;SDS011;38032;53.326;6.472;2023-07-16T04:41:04;12.27;;;5.28;;
52015;SDS011;38032;53.326;6.472;2023-07-16T04:43:30;14.60;;;5.40;;
52015;SDS011;38032;53.326;6.472;2023-07-16T04:45:56;11.05;;;5.60;;
52015;SDS011;38032;53.326;6.472;2023-07-16T04:48:22;16.02;;;5.75;;
52015;SDS011;38032;53.326;6.472;2023-07-16T04:50:47;13.82;;;6.03;;
52015;SDS011;38032;53.326;6.472;2023-07-16T04:53:13;10.05;;;5.28;;
52015;SDS011;38032;53.326;6.472;2023-07-16T04:55:42;9.73;;;5.40;;
52015;SDS011;38032;53.326;6.472;2023-07-16T04:58:09;13.18;;;5.60;;
52015;SDS011;38032;53.326;6.472;2023-07-16T05:00:36;14.18;;;6.03;;
52015;SDS011;38032;53.326;6.472;2023-07-16T05:03:02;14.20;;;6.03;;
52015;SDS011;38032;53.326;6.472;2023-07-16T05:05:28;13.98;;;5.95;;
52015;SDS011;38032;53.326;6.472;2023-07-16T05:07:54;13.43;;;6.38;;
52015;SDS011;38032;53.326;6.472;2023-07-16T05:10:20;12.50;;;5.35;;
52015;SDS011;38032;53.326;6.472;2023-07-16T05:12:46;11.88;;;5.80;;
52015;SDS011;38032;53.326;6.472;2023-07-16T05:15:12;14.98;;;6.07;;
52015;SDS011;38032;53.326;6.472;2023-07-16T05:17:38;13.52;;;6.03;;
52015;SDS011;38032;53.326;6.472;2023-07-16T05:20:04;10.18;;;5.32;;
52015;SDS011;38032;53.326;6.472;2023-07-16T05:22:32;12.32;;;6.85;;
52015;SDS011;38032;53.326;6.472;2023-07-16T05:24:58;11.80;;;6.07;;
52015;SDS011;38032;53.326;6.472;2023-07-16T05:27:24;14.00;;;6.00;;
52015;SDS011;38032;53.326;6.472;2023-07-16T05:29:50;15.50;;;6.18;;
52015;SDS011;38032;53.326;6.472;2023-07-16T05:32:16;11.70;;;5.60;;
52015;SDS011;38032;53.326;6.472;2023-07-16T05:34:42;12.98;;;5.80;;
52015;SDS011;38032;53.326;6.472;2023-07-16T05:37:08;10.25;;;5.43;;
52015;SDS011;38032;53.326;6.472;2023-07-16T05:39:34;13.88;;;5.80;;
52015;SDS011;38032;53.326;6.472;2023-07-16T05:42:00;11.10;;;5.57;;
52015;SDS011;38032;53.326;6.472;2023-07-16T05:44:28;10.57;;;5.35;;
52015;SDS011;38032;53.326;6.472;2023-07-16T05:46:54;16.98;;;5.50;;
52015;SDS011;38032;53.326;6.472;2023-07-16T05:49:20;8.75;;;5.10;;
52015;SDS011;38032;53.326;6.472;2023-07-16T05:51:45;13.73;;;5.78;;
52015;SDS011;38032;53.326;6.472;2023-07-16T05:54:11;12.57;;;5.25;;
52015;SDS011;38032;53.326;6.472;2023-07-16T05:56:37;13.45;;;5.65;;
52015;SDS011;38032;53.326;6.472;2023-07-16T05:59:03;11.25;;;5.40;;
52015;SDS011;38032;53.326;6.472;2023-07-16T06:01:29;10.75;;;4.80;;
52015;SDS011;38032;53.326;6.472;2023-07-16T06:03:55;10.07;;;5.13;;
52015;SDS011;38032;53.326;6.472;2023-07-16T06:06:21;10.85;;;5.53;;
52015;SDS011;38032;53.326;6.472;2023-07-16T06:08:47;12.90;;;5.03;;
52015;SDS011;38032;53.326;6.472;2023-07-16T06:11:13;10.82;;;5.05;;
52015;SDS011;38032;53.326;6.472;2023-07-16T06:13:39;11.30;;;4.90;;
52015;SDS011;38032;53.326;6.472;2023-07-16T06:16:05;12.48;;;5.03;;
52015;SDS011;38032;53.326;6.472;2023-07-16T06:18:31;12.20;;;4.97;;
52015;SDS011;38032;53.326;6.472;2023-07-16T06:20:57;11.30;;;5.18;;
52015;SDS011;38032;53.326;6.472;2023-07-16T06:23:23;11.95;;;5.22;;
52015;SDS011;38032;53.326;6.472;2023-07-16T06:25:53;15.30;;;5.10;;
52015;SDS011;38032;53.326;6.472;2023-07-16T06:28:21;9.73;;;5.07;;
52015;SDS011;38032;53.326;6.472;2023-07-16T06:30:47;11.15;;;4.80;;
52015;SDS011;38032;53.326;6.472;2023-07-16T06:33:14;9.27;;;4.75;;
52015;SDS011;38032;53.326;6.472;2023-07-16T06:35:43;12.50;;;5.03;;
52015;SDS011;38032;53.326;6.472;2023-07-16T06:38:11;12.35;;;4.75;;
52015;SDS011;38032;53.326;6.472;2023-07-16T06:40:37;11.95;;;4.93;;
52015;SDS011;38032;53.326;6.472;2023-07-16T06:43:03;11.25;;;5.20;;
52015;SDS011;38032;53.326;6.472;2023-07-16T06:45:29;11.10;;;5.18;;
52015;SDS011;38032;53.326;6.472;2023-07-16T06:47:55;13.02;;;5.43;;
52015;SDS011;38032;53.326;6.472;2023-07-16T06:50:21;11.73;;;5.25;;
52015;SDS011;38032;53.326;6.472;2023-07-16T06:52:47;12.15;;;5.30;;
52015;SDS011;38032;53.326;6.472;2023-07-16T06:55:13;14.35;;;5.05;;
52015;SDS011;38032;53.326;6.472;2023-07-16T06:57:39;10.32;;;5.00;;
52015;SDS011;38032;53.326;6.472;2023-07-16T07:00:05;9.13;;;5.28;;
52015;SDS011;38032;53.326;6.472;2023-07-16T07:02:32;13.93;;;5.38;;
52015;SDS011;38032;53.326;6.472;2023-07-16T07:04:57;13.88;;;5.53;;
52015;SDS011;38032;53.326;6.472;2023-07-16T07:07:24;11.63;;;5.45;;
52015;SDS011;38032;53.326;6.472;2023-07-16T07:09:50;9.23;;;5.03;;
52015;SDS011;38032;53.326;6.472;2023-07-16T07:12:16;11.38;;;5.20;;
52015;SDS011;38032;53.326;6.472;2023-07-16T07:14:42;14.88;;;5.85;;
52015;SDS011;38032;53.326;6.472;2023-07-16T07:17:08;8.68;;;4.88;;
52015;SDS011;38032;53.326;6.472;2023-07-16T07:19:33;12.05;;;5.30;;
52015;SDS011;38032;53.326;6.472;2023-07-16T07:21:59;11.02;;;5.05;;
52015;SDS011;38032;53.326;6.472;2023-07-16T07:24:25;10.52;;;5.53;;
52015;SDS011;38032;53.326;6.472;2023-07-16T07:26:51;10.50;;;5.35;;
52015;SDS011;38032;53.326;6.472;2023-07-16T07:29:17;9.52;;;5.28;;
52015;SDS011;38032;53.326;6.472;2023-07-16T07:31:43;12.98;;;5.25;;
52015;SDS011;38032;53.326;6.472;2023-07-16T07:34:09;10.63;;;5.38;;
52015;SDS011;38032;53.326;6.472;2023-07-16T07:36:35;12.25;;;5.38;;
52015;SDS011;38032;53.326;6.472;2023-07-16T07:39:01;10.40;;;5.72;;
52015;SDS011;38032;53.326;6.472;2023-07-16T07:41:27;12.02;;;5.68;;
52015;SDS011;38032;53.326;6.472;2023-07-16T07:43:53;11.75;;;5.15;;
52015;SDS011;38032;53.326;6.472;2023-07-16T07:46:19;13.65;;;5.80;;
52015;SDS011;38032;53.326;6.472;2023-07-16T07:48:45;9.10;;;5.82;;
52015;SDS011;38032;53.326;6.472;2023-07-16T07:51:11;11.40;;;5.45;;
52015;SDS011;38032;53.326;6.472;2023-07-16T07:53:37;11.23;;;5.25;;
52015;SDS011;38032;53.326;6.472;2023-07-16T07:56:03;15.23;;;5.68;;
52015;SDS011;38032;53.326;6.472;2023-07-16T07:58:29;9.48;;;5.10;;
52015;SDS011;38032;53.326;6.472;2023-07-16T08:00:55;12.70;;;5.43;;
52015;SDS011;38032;53.326;6.472;2023-07-16T08:03:21;11.98;;;5.70;;
52015;SDS011;38032;53.326;6.472;2023-07-16T08:05:49;8.63;;;5.32;;
52015;SDS011;38032;53.326;6.472;2023-07-16T08:08:15;9.05;;;5.60;;
52015;SDS011;38032;53.326;6.472;2023-07-16T08:10:41;9.48;;;5.25;;
52015;SDS011;38032;53.326;6.472;2023-07-16T08:13:08;7.65;;;4.90;;
52015;SDS011;38032;53.326;6.472;2023-07-16T08:15:33;10.10;;;5.10;;
52015;SDS011;38032;53.326;6.472;2023-07-16T08:17:59;9.15;;;4.82;;
52015;SDS011;38032;53.326;6.472;2023-07-16T08:20:26;9.50;;;4.93;;
52015;SDS011;38032;53.326;6.472;2023-07-16T08:22:52;9.05;;;4.70;;
52015;SDS011;38032;53.326;6.472;2023-07-16T08:25:18;8.18;;;5.13;;
52015;SDS011;38032;53.326;6.472;2023-07-16T08:27:44;9.82;;;5.05;;
52015;SDS011;38032;53.326;6.472;2023-07-16T08:30:10;9.23;;;5.38;;
52015;SDS011;38032;53.326;6.472;2023-07-16T08:32:36;7.55;;;5.18;;
52015;SDS011;38032;53.326;6.472;2023-07-16T08:35:02;9.80;;;4.65;;
52015;SDS011;38032;53.326;6.472;2023-07-16T08:37:28;10.40;;;5.80;;
52015;SDS011;38032;53.326;6.472;2023-07-16T08:39:54;9.88;;;5.60;;
52015;SDS011;38032;53.326;6.472;2023-07-16T08:42:20;10.80;;;5.50;;
52015;SDS011;38032;53.326;6.472;2023-07-16T08:44:49;9.90;;;5.68;;
52015;SDS011;38032;53.326;6.472;2023-07-16T08:47:16;7.70;;;4.53;;
52015;SDS011;38032;53.326;6.472;2023-07-16T08:49:46;10.10;;;5.25;;
52015;SDS011;38032;53.326;6.472;2023-07-16T08:52:21;13.55;;;5.57;;
52015;SDS011;38032;53.326;6.472;2023-07-16T08:54:47;10.35;;;5.55;;
52015;SDS011;38032;53.326;6.472;2023-07-16T08:57:14;12.15;;;5.32;;
52015;SDS011;38032;53.326;6.472;2023-07-16T08:59:40;11.32;;;5.57;;
52015;SDS011;38032;53.326;6.472;2023-07-16T09:02:06;11.95;;;5.55;;
52015;SDS011;38032;53.326;6.472;2023-07-16T09:04:32;11.63;;;6.18;;
52015;SDS011;38032;53.326;6.472;2023-07-16T09:06:58;10.60;;;5.72;;
52015;SDS011;38032;53.326;6.472;2023-07-16T09:09:24;12.48;;;5.70;;
52015;SDS011;38032;53.326;6.472;2023-07-16T09:11:50;10.23;;;5.25;;
52015;SDS011;38032;53.326;6.472;2023-07-16T09:14:17;11.43;;;5.65;;
52015;SDS011;38032;53.326;6.472;2023-07-16T09:16:49;10.38;;;5.60;;
52015;SDS011;38032;53.326;6.472;2023-07-16T09:19:17;14.23;;;5.22;;
52015;SDS011;38032;53.326;6.472;2023-07-16T09:21:46;8.65;;;5.05;;
52015;SDS011;38032;53.326;6.472;2023-07-16T09:24:13;12.30;;;5.18;;
52015;SDS011;38032;53.326;6.472;2023-07-16T09:26:47;11.82;;;5.30;;
52015;SDS011;38032;53.326;6.472;2023-07-16T09:29:15;9.55;;;5.20;;
52015;SDS011;38032;53.326;6.472;2023-07-16T09:31:54;8.60;;;4.43;;
52015;SDS011;38032;53.326;6.472;2023-07-16T09:34:21;9.13;;;4.50;;
52015;SDS011;38032;53.326;6.472;2023-07-16T09:36:48;7.93;;;4.63;;
52015;SDS011;38032;53.326;6.472;2023-07-16T09:39:20;9.55;;;4.78;;
52015;SDS011;38032;53.326;6.472;2023-07-16T09:41:47;8.73;;;4.85;;
52015;SDS011;38032;53.326;6.472;2023-07-16T09:44:15;9.20;;;5.03;;
52015;SDS011;38032;53.326;6.472;2023-07-16T09:46:41;10.23;;;5.30;;
52015;SDS011;38032;53.326;6.472;2023-07-16T09:49:08;8.23;;;4.72;;
52015;SDS011;38032;53.326;6.472;2023-07-16T09:51:36;9.13;;;4.88;;
52015;SDS011;38032;53.326;6.472;2023-07-16T09:54:03;10.68;;;4.93;;
52015;SDS011;38032;53.326;6.472;2023-07-16T09:56:32;9.27;;;5.10;;
52015;SDS011;38032;53.326;6.472;2023-07-16T09:59:02;11.10;;;4.82;;
52015;SDS011;38032;53.326;6.472;2023-07-16T10:01:33;8.32;;;4.78;;
52015;SDS011;38032;53.326;6.472;2023-07-16T10:04:09;7.60;;;4.47;;
52015;SDS011;38032;53.326;6.472;2023-07-16T10:06:37;10.25;;;5.22;;
52015;SDS011;38032;53.326;6.472;2023-07-16T10:09:13;8.50;;;4.63;;
52015;SDS011;38032;53.326;6.472;2023-07-16T10:11:40;8.00;;;4.57;;
52015;SDS011;38032;53.326;6.472;2023-07-16T10:14:07;8.65;;;4.30;;
52015;SDS011;38032;53.326;6.472;2023-07-16T10:16:37;8.93;;;4.65;;
52015;SDS011;38032;53.326;6.472;2023-07-16T10:19:04;8.95;;;4.10;;
52015;SDS011;38032;53.326;6.472;2023-07-16T10:21:36;9.52;;;4.43;;
52015;SDS011;38032;53.326;6.472;2023-07-16T10:24:03;9.63;;;4.10;;
52015;SDS011;38032;53.326;6.472;2023-07-16T10:26:31;8.00;;;4.68;;
52015;SDS011;38032;53.326;6.472;2023-07-16T10:28:57;8.35;;;4.63;;
52015;SDS011;38032;53.326;6.472;2023-07-16T10:31:24;8.68;;;4.78;;
52015;SDS011;38032;53.326;6.472;2023-07-16T10:33:58;7.63;;;4.43;;
52015;SDS011;38032;53.326;6.472;2023-07-16T10:36:29;6.50;;;4.15;;
52015;SDS011;38032;53.326;6.472;2023-07-16T10:39:03;7.07;;;4.18;;
52015;SDS011;38032;53.326;6.472;2023-07-16T10:41:30;7.35;;;4.35;;
52015;SDS011;38032;53.326;6.472;2023-07-16T10:43:58;8.32;;;4.35;;
52015;SDS011;38032;53.326;6.472;2023-07-16T10:46:24;10.18;;;4.72;;
52015;SDS011;38032;53.326;6.472;2023-07-16T10:48:50;8.27;;;4.82;;
52015;SDS011;38032;53.326;6.472;2023-07-16T10:51:16;12.02;;;4.65;;
52015;SDS011;38032;53.326;6.472;2023-07-16T10:53:43;10.10;;;5.07;;
52015;SDS011;38032;53.326;6.472;2023-07-16T10:56:09;9.52;;;5.22;;
52015;SDS011;38032;53.326;6.472;2023-07-16T10:58:37;7.47;;;4.70;;
52015;SDS011;38032;53.326;6.472;2023-07-16T11:01:03;9.15;;;4.95;;
52015;SDS011;38032;53.326;6.472;2023-07-16T11:03:29;8.27;;;4.75;;
52015;SDS011;38032;53.326;6.472;2023-07-16T11:05:55;10.18;;;5.00;;
52015;SDS011;38032;53.326;6.472;2023-07-16T11:08:22;8.02;;;4.35;;
52015;SDS011;38032;53.326;6.472;2023-07-16T11:10:56;11.15;;;5.10;;
52015;SDS011;38032;53.326;6.472;2023-07-16T11:13:27;9.55;;;4.60;;
52015;SDS011;38032;53.326;6.472;2023-07-16T11:15:53;10.98;;;4.53;;
52015;SDS011;38032;53.326;6.472;2023-07-16T11:18:21;6.13;;;3.90;;
52015;SDS011;38032;53.326;6.472;2023-07-16T11:20:51;9.55;;;4.85;;
52015;SDS011;38032;53.326;6.472;2023-07-16T11:23:18;10.38;;;4.82;;
52015;SDS011;38032;53.326;6.472;2023-07-16T11:25:46;7.28;;;4.40;;
52015;SDS011;38032;53.326;6.472;2023-07-16T11:28:13;9.40;;;4.85;;
52015;SDS011;38032;53.326;6.472;2023-07-16T11:30:39;9.32;;;4.35;;
52015;SDS011;38032;53.326;6.472;2023-07-16T11:33:09;8.45;;;4.60;;
52015;SDS011;38032;53.326;6.472;2023-07-16T11:35:35;6.53;;;4.07;;
52015;SDS011;38032;53.326;6.472;2023-07-16T11:38:04;8.90;;;4.55;;
52015;SDS011;38032;53.326;6.472;2023-07-16T11:40:33;12.57;;;4.80;;
52015;SDS011;38032;53.326;6.472;2023-07-16T11:43:08;9.50;;;4.72;;
52015;SDS011;38032;53.326;6.472;2023-07-16T11:45:35;8.57;;;4.68;;
52015;SDS011;38032;53.326;6.472;2023-07-16T11:48:01;8.23;;;4.53;;
52015;SDS011;38032;53.326;6.472;2023-07-16T11:50:28;12.35;;;5.07;;
52015;SDS011;38032;53.326;6.472;2023-07-16T11:52:55;9.10;;;4.85;;
52015;SDS011;38032;53.326;6.472;2023-07-16T11:55:26;8.02;;;4.18;;
52015;SDS011;38032;53.326;6.472;2023-07-16T11:57:52;9.02;;;4.50;;
52015;SDS011;38032;53.326;6.472;2023-07-16T12:00:18;9.33;;;3.73;;
52015;SDS011;38032;53.326;6.472;2023-07-16T12:02:44;7.78;;;3.97;;
52015;SDS011;38032;53.326;6.472;2023-07-16T12:05:17;10.15;;;3.88;;
52015;SDS011;38032;53.326;6.472;2023-07-16T12:07:43;8.32;;;3.60;;
52015;SDS011;38032;53.326;6.472;2023-07-16T12:10:09;8.43;;;3.65;;
52015;SDS011;38032;53.326;6.472;2023-07-16T12:12:35;9.68;;;3.50;;
52015;SDS011;38032;53.326;6.472;2023-07-16T12:15:03;7.07;;;3.60;;
52015;SDS011;38032;53.326;6.472;2023-07-16T12:17:30;12.07;;;4.13;;
52015;SDS011;38032;53.326;6.472;2023-07-16T12:19:56;8.77;;;3.58;;
52015;SDS011;38032;53.326;6.472;2023-07-16T12:22:22;10.25;;;4.07;;
52015;SDS011;38032;53.326;6.472;2023-07-16T12:24:49;9.32;;;3.67;;
52015;SDS011;38032;53.326;6.472;2023-07-16T12:27:15;10.80;;;3.50;;
52015;SDS011;38032;53.326;6.472;2023-07-16T12:29:41;7.07;;;3.60;;
52015;SDS011;38032;53.326;6.472;2023-07-16T12:32:09;9.98;;;4.20;;
52015;SDS011;38032;53.326;6.472;2023-07-16T12:34:35;11.43;;;5.30;;
52015;SDS011;38032;53.326;6.472;2023-07-16T12:37:02;11.02;;;5.28;;
52015;SDS011;38032;53.326;6.472;2023-07-16T12:39:28;11.52;;;4.57;;
52015;SDS011;38032;53.326;6.472;2023-07-16T12:41:54;12.55;;;5.30;;
52015;SDS011;38032;53.326;6.472;2023-07-16T12:44:20;11.55;;;4.70;;
52015;SDS011;38032;53.326;6.472;2023-07-16T12:46:46;8.43;;;4.55;;
52015;SDS011;38032;53.326;6.472;2023-07-16T12:49:11;13.18;;;5.13;;
52015;SDS011;38032;53.326;6.472;2023-07-16T12:51:37;10.82;;;4.80;;
52015;SDS011;38032;53.326;6.472;2023-07-16T12:54:03;8.02;;;4.25;;
52015;SDS011;38032;53.326;6.472;2023-07-16T12:56:29;8.90;;;4.40;;
52015;SDS011;38032;53.326;6.472;2023-07-16T12:58:56;9.05;;;4.40;;
52015;SDS011;38032;53.326;6.472;2023-07-16T13:01:22;8.05;;;4.15;;
52015;SDS011;38032;53.326;6.472;2023-07-16T13:03:48;17.52;;;4.50;;
52015;SDS011;38032;53.326;6.472;2023-07-16T13:06:14;8.10;;;4.22;;
52015;SDS011;38032;53.326;6.472;2023-07-16T13:08:40;9.98;;;4.00;;
52015;SDS011;38032;53.326;6.472;2023-07-16T13:11:06;11.02;;;4.57;;
52015;SDS011;38032;53.326;6.472;2023-07-16T13:13:32;8.52;;;4.28;;
52015;SDS011;38032;53.326;6.472;2023-07-16T13:15:58;9.52;;;4.00;;
52015;SDS011;38032;53.326;6.472;2023-07-16T13:18:24;17.15;;;4.57;;
52015;SDS011;38032;53.326;6.472;2023-07-16T13:20:50;12.38;;;4.78;;
52015;SDS011;38032;53.326;6.472;2023-07-16T13:23:16;12.60;;;5.28;;
52015;SDS011;38032;53.326;6.472;2023-07-16T13:25:42;13.45;;;4.70;;
52015;SDS011;38032;53.326;6.472;2023-07-16T13:28:08;12.93;;;4.60;;
52015;SDS011;38032;53.326;6.472;2023-07-16T13:30:34;11.70;;;4.28;;
52015;SDS011;38032;53.326;6.472;2023-07-16T13:32:59;8.63;;;3.72;;
52015;SDS011;38032;53.326;6.472;2023-07-16T13:35:26;10.30;;;3.53;;
52015;SDS011;38032;53.326;6.472;2023-07-16T13:37:52;11.88;;;3.58;;
52015;SDS011;38032;53.326;6.472;2023-07-16T13:40:18;6.72;;;2.88;;
52015;SDS011;38032;53.326;6.472;2023-07-16T13:42:46;9.52;;;3.13;;
52015;SDS011;38032;53.326;6.472;2023-07-16T13:45:13;10.00;;;3.30;;
52015;SDS011;38032;53.326;6.472;2023-07-16T13:47:39;11.48;;;3.33;;
52015;SDS011;38032;53.326;6.472;2023-07-16T13:50:05;10.10;;;3.13;;
52015;SDS011;38032;53.326;6.472;2023-07-16T13:52:31;9.77;;;2.90;;
52015;SDS011;38032;53.326;6.472;2023-07-16T13:54:57;8.45;;;3.15;;
52015;SDS011;38032;53.326;6.472;2023-07-16T13:57:23;12.77;;;2.90;;
52015;SDS011;38032;53.326;6.472;2023-07-16T13:59:49;9.07;;;2.45;;
52015;SDS011;38032;53.326;6.472;2023-07-16T14:02:15;9.13;;;2.80;;
52015;SDS011;38032;53.326;6.472;2023-07-16T14:04:41;8.05;;;3.10;;
52015;SDS011;38032;53.326;6.472;2023-07-16T14:07:07;9.73;;;3.40;;
52015;SDS011;38032;53.326;6.472;2023-07-16T14:09:33;11.70;;;3.20;;
52015;SDS011;38032;53.326;6.472;2023-07-16T14:11:59;13.98;;;3.42;;
52015;SDS011;38032;53.326;6.472;2023-07-16T14:14:25;9.73;;;3.22;;
52015;SDS011;38032;53.326;6.472;2023-07-16T14:16:51;10.32;;;3.17;;
52015;SDS011;38032;53.326;6.472;2023-07-16T14:19:18;12.82;;;3.53;;
52015;SDS011;38032;53.326;6.472;2023-07-16T14:21:44;11.40;;;3.42;;
52015;SDS011;38032;53.326;6.472;2023-07-16T14:24:10;11.07;;;3.60;;
52015;SDS011;38032;53.326;6.472;2023-07-16T14:26:36;10.82;;;3.25;;
52015;SDS011;38032;53.326;6.472;2023-07-16T14:29:02;10.75;;;3.60;;
52015;SDS011;38032;53.326;6.472;2023-07-16T14:31:28;11.25;;;3.20;;
52015;SDS011;38032;53.326;6.472;2023-07-16T14:33:54;9.57;;;3.10;;
52015;SDS011;38032;53.326;6.472;2023-07-16T14:36:20;15.43;;;3.55;;
52015;SDS011;38032;53.326;6.472;2023-07-16T14:38:47;10.25;;;2.45;;
52015;SDS011;38032;53.326;6.472;2023-07-16T14:41:13;10.00;;;2.88;;